Latest Coastal Weather Observations for Cape Otway

IDT60701

Issued at 8:21 pm EST Monday 27 April 2015 (issued every 10 minutes, with the page automatically refreshed every 10 minutes)

About coastal observations | Map of coastal stations | Coastal observations for TAS | Marine services | Other Formats
Station Details ID: 090015 Name: CAPE OTWAY LIGHTHOUSE Lat: -38.86 Lon: 143.51 Height: 82.0 m
Data from the previous 72 hours. | See also: Recent months at Cape Otway
Date/Time
EST
Temp

°C
Wind Pressure Rain
since 9am
mm
Weather Cloud Vis
km
Sea
Height
m
Swell
Dir
 
Speed
knots
Gust
knots
hPa Trend Height
m
Period
s
Dir
27/08:00pm 12.6 SSW 12 19 1025.7 - 0.2 - - - - - - -
27/07:30pm 12.6 SSW 13 17 1025.5 - 0.2 - - - - - - -
27/07:00pm 12.3 SW 10 15 1025.2 - 0.2 - - - - - - -
27/06:30pm 12.0 SSW 15 21 1024.9 - 0.2 - - - - - - -
27/06:00pm 12.3 SW 13 17 1024.5 - 0.2 - - - - - - -
27/05:30pm 12.5 SSW 13 19 1024.4 - 0.2 - - - - - - -
27/05:00pm 12.6 SW 13 17 1024.2 - 0.2 - - - - - - -
27/04:30pm 12.0 WSW 12 19 1024.2 - 0.2 - - - - - - -
27/04:00pm 13.4 SW 14 20 1024.0 - 0.2 - - - - - - -
27/03:30pm 12.3 SW 10 17 1023.9 - 0.2 - - - - - - -
27/03:00pm 13.0 SW 12 16 1023.8 - 0.2 - - - - - - -
27/02:30pm 12.3 SSW 18 26 1023.5 - 0.2 - - - - - - -
27/02:21pm 13.1 SW 15 25 1023.4 - 0.2 - - - - - - -
27/02:00pm 12.9 SW 14 19 1023.4 - 0.2 - - - - - - -
27/01:30pm 11.6 SW 15 22 1023.4 - 0.2 - - - - - - -
27/01:00pm 13.6 SW 15 19 1023.4 - 0.2 - - - - - - -
27/12:30pm 13.0 SW 16 22 1023.6 - 0.2 - - - - - - -
27/12:00pm 13.0 SW 14 19 1023.7 - 0.2 - - - - - - -
27/11:30am 11.6 SSW 17 25 1024.0 - 0.0 - - - - - - -
27/11:00am 13.0 SW 17 24 1023.8 - 0.0 - - - - - - -
27/10:30am 13.3 SW 14 20 1023.8 - 0.0 - - - - - - -
27/10:00am 12.4 SW 12 17 1023.7 - 0.0 - - - - - - -
27/09:30am 12.4 SW 12 16 1023.5 - 0.0 - - - - - - -
27/09:00am 11.0 SW 19 26 1023.3 - 1.8 - - - - - - -
27/08:55am 11.4 SW 15 26 1023.3 - 1.8 - - - - - - -
27/08:30am 11.4 SSW 14 20 1023.2 - 1.6 - - - - - - -
27/08:00am 11.8 WSW 16 23 1022.9 - 1.4 - - - - - - -
27/07:30am 11.9 SW 11 17 1022.6 - 1.4 - - - - - - -
27/07:00am 11.9 SW 14 22 1022.3 - 1.4 - - - - - - -
27/06:32am 12.3 SW 16 26 1021.8 - 1.4 - - - - - - -
27/06:30am 12.6 SW 16 24 1021.8 - 1.4 - - - - - - -
27/06:00am 12.4 SW 18 23 1021.7 - 1.4 - - - - - - -
27/05:30am 11.7 SSW 14 21 1021.7 - 1.4 - - - - - - -
27/05:21am 11.7 SW 15 25 1021.6 - 1.4 - - - - - - -
27/05:00am 12.3 SW 17 24 1021.5 - 1.4 - - - - - - -
27/04:30am 12.9 SW 16 22 1021.1 - 1.4 - - - - - - -
27/04:00am 12.6 SW 18 25 1021.0 - 1.4 - - - - - - -
27/03:43am 12.5 SW 17 27 1021.0 - 1.4 - - - - - - -
27/03:30am 12.5 SW 19 25 1021.0 - 1.4 - - - - - - -
27/03:00am 12.6 SW 18 25 1021.0 - 1.4 - - - - - - -
27/02:30am 12.7 SW 16 20 1021.0 - 1.4 - - - - - - -
27/02:00am 11.8 SW 14 19 1021.2 - 1.4 - - - - - - -
27/01:30am 11.8 SW 19 27 1021.1 - 1.4 - - - - - - -
27/01:25am 11.9 SW 17 27 1021.1 - 1.2 - - - - - - -
27/01:00am 12.4 SW 17 24 1021.0 - 1.2 - - - - - - -
27/12:30am 12.2 SSW 16 21 1021.1 - 1.2 - - - - - - -
27/12:00am 12.4 SW 16 21 1021.1 - 1.2 - - - - - - -
 
Date/Time
EST
Temp

°C
Wind Pressure Rain
since 9am
mm
Weather Cloud Vis
km
Sea
Height
m
Swell
Dir
 
Speed
knots
Gust
knots
hPa Trend Height
m
Period
s
Dir
26/11:30pm 12.4 SW 17 25 1021.1 - 1.2 - - - - - - -
26/11:00pm 12.4 SW 17 26 1021.0 - 1.2 - - - - - - -
26/10:41pm 12.1 SW 18 28 1021.2 - 1.0 - - - - - - -
26/10:30pm 11.8 WSW 16 23 1021.1 - 1.0 - - - - - - -
26/10:00pm 12.0 SW 17 26 1021.2 - 1.0 - - - - - - -
26/09:36pm 12.6 SW 17 29 1021.1 - 0.6 - - - - - - -
26/09:30pm 12.6 WSW 17 24 1021.2 - 0.6 - - - - - - -
26/09:00pm 12.4 SW 19 26 1020.9 - 0.6 - - - - - - -
26/08:30pm 12.7 WSW 21 29 1020.8 - 0.6 - - - - - - -
26/08:05pm 12.5 WSW 16 27 1020.7 - 0.6 - - - - - - -
26/08:00pm 12.2 WSW 19 27 1020.8 - 0.6 - - - - - - -
26/07:45pm 13.0 WSW 18 28 1020.6 - 0.6 - - - - - - -
26/07:30pm 12.6 WSW 18 25 1020.7 - 0.6 - - - - - - -
26/07:00pm 12.6 WSW 19 24 1020.5 - 0.6 - - - - - - -
26/06:30pm 12.1 WSW 17 28 1020.3 - 0.4 - - - - - - -
26/06:00pm 11.5 WSW 16 26 1020.1 - 0.2 - - - - - - -
26/05:43pm 12.6 WSW 17 27 1019.9 - 0.0 - - - - - - -
26/05:30pm 12.7 WSW 17 25 1019.8 - 0.0 - - - - - - -
26/05:00pm 13.3 WSW 17 26 1019.8 - 0.0 - - - - - - -
26/04:30pm 12.3 WSW 19 29 1020.0 - 0.0 - - - - - - -
26/04:20pm 13.0 WSW 16 26 1019.8 - 0.0 - - - - - - -
26/04:00pm 13.1 W 16 22 1019.6 - 0.0 - - - - - - -
26/03:30pm 13.2 WSW 19 26 1019.4 - 0.0 - - - - - - -
26/03:00pm 13.1 WSW 18 24 1019.2 - 0.0 - - - - - - -
26/02:30pm 13.4 WSW 18 25 1019.3 - 0.0 - - - - - - -
26/02:00pm 13.4 WSW 20 28 1019.1 - 0.0 - - - - - - -
26/01:30pm 13.3 WSW 20 26 1019.1 - 0.0 - - - - - - -
26/01:00pm 13.2 WSW 19 25 1019.1 - 0.0 - - - - - - -
26/12:30pm 12.6 WSW 15 26 1019.1 - 0.0 - - - - - - -
26/12:03pm 11.7 SW 17 27 1019.6 - 0.0 - - - - - - -
26/12:00pm 11.7 SW 19 27 1019.5 - 0.0 - - - - - - -
26/11:49am 11.9 SW 23 33 1019.5 - 0.0 - - - - - - -
26/11:30am 12.7 SW 22 31 1019.5 - 0.0 - - - - - - -
26/11:13am 13.3 SW 19 30 1019.4 - 0.0 - - - - - - -
26/11:00am 13.5 WSW 18 26 1019.5 - 0.0 - - - - - - -
26/10:30am 11.7 SW 17 23 1019.6 - 0.0 - - - - - - -
26/10:03am 11.5 WSW 17 28 1019.6 - 0.0 - - - - - - -
26/10:00am 11.6 SW 18 27 1019.7 - 0.0 - - - - - - -
26/09:44am 12.7 SW 18 31 1019.3 - 0.0 - - - - - - -
26/09:30am 12.9 WSW 14 19 1019.4 - 0.0 - - - - - - -
26/09:00am 12.0 SSW 17 27 1019.3 - 3.0 - - - - - - -
26/08:51am 11.9 SSW 20 27 1019.2 - 3.0 - - - - - - -
26/08:30am 12.4 WSW 18 27 1019.1 - 3.0 - - - - - - -
26/08:21am 12.1 SW 17 27 1018.9 - 3.0 - - - - - - -
26/08:00am 11.4 SW 19 27 1018.8 - 3.0 - - - - - - -
26/07:32am 11.3 SW 15 26 1018.4 - 3.0 - - - - - - -
26/07:30am 11.8 SW 15 23 1018.3 - 3.0 - - - - - - -
26/07:00am 12.1 SSW 17 23 1017.9 - 2.8 - - - - - - -
26/06:41am 11.4 SSW 18 28 1017.9 - 2.8 - - - - - - -
26/06:30am 11.9 SSW 18 27 1017.6 - 2.8 - - - - - - -
26/06:11am 10.9 SW 16 27 1017.8 - 2.8 - - - - - - -
26/06:03am 11.2 SSW 23 27 1017.5 - 2.6 - - - - - - -
26/06:00am 11.0 SW 16 26 1017.5 - 2.6 - - - - - - -
26/05:30am 10.8 SW 18 25 1017.5 - 2.6 - - - - - - -
26/05:00am 10.6 SSW 18 28 1017.2 - 2.6 - - - - - - -
26/04:30am 11.2 SSW 16 28 1016.9 - 2.4 - - - - - - -
26/04:17am 11.8 SSW 16 26 1016.7 - 2.4 - - - - - - -
26/04:00am 12.3 SSW 16 22 1016.8 - 2.4 - - - - - - -
26/03:30am 11.7 SSW 19 26 1016.7 - 2.4 - - - - - - -
26/03:00am 11.7 SSW 15 23 1016.6 - 2.4 - - - - - - -
26/02:47am 11.1 SSW 17 27 1016.7 - 2.4 - - - - - - -
26/02:30am 12.1 SW 16 23 1016.4 - 2.4 - - - - - - -
26/02:00am 12.0 SSW 16 22 1016.4 - 2.4 - - - - - - -
26/01:30am 11.8 SSW 19 25 1016.4 - 2.4 - - - - - - -
26/01:10am 11.7 SSW 15 25 1016.2 - 2.4 - - - - - - -
26/01:00am 11.4 SSW 15 23 1016.4 - 2.4 - - - - - - -
26/12:41am 11.6 SSW 15 24 1016.2 - 2.4 - - - - - - -
26/12:30am 11.1 SSW 10 14 1016.3 - 2.4 - - - - - - -
26/12:04am 11.6 SSW 16 26 1015.9 - 2.2 - - - - - - -
26/12:00am 12.0 SSW 16 21 1016.1 - 2.2 - - - - - - -
 
Date/Time
EST
Temp

°C
Wind Pressure Rain
since 9am
mm
Weather Cloud Vis
km
Sea
Height
m
Swell
Dir
 
Speed
knots
Gust
knots
hPa Trend Height
m
Period
s
Dir
25/11:30pm 12.3 SSW 18 27 1015.9 - 2.2 - - - - - - -
25/11:25pm 12.4 SSW 15 27 1015.7 - 2.2 - - - - - - -
25/11:00pm 12.2 SSW 15 24 1016.0 - 2.2 - - - - - - -
25/10:56pm 12.0 SSW 17 27 1016.0 - 2.2 - - - - - - -
25/10:30pm 12.1 SSW 15 24 1015.9 - 2.2 - - - - - - -
25/10:00pm 12.8 SSW 13 22 1015.8 - 2.0 - - - - - - -
25/09:30pm 12.7 SSW 14 21 1015.7 - 2.0 - - - - - - -
25/09:00pm 12.6 SSW 18 25 1015.5 - 2.0 - - - - - - -
25/08:30pm 12.7 SSW 15 24 1015.0 - 2.0 - - - - - - -
25/08:00pm 12.8 SW 10 15 1014.9 - 2.0 - - - - - - -
25/07:30pm 12.7 SSW 11 19 1014.7 - 2.0 - - - - - - -
25/07:00pm 12.6 SSW 14 21 1014.1 - 2.0 - - - - - - -
25/06:30pm 12.6 SSW 17 23 1013.9 - 2.0 - - - - - - -
25/06:00pm 12.4 SSW 15 22 1013.3 - 2.0 - - - - - - -
25/05:30pm 12.6 SSW 16 23 1013.0 - 2.0 - - - - - - -
25/05:00pm 12.8 SSW 19 27 1012.7 - 2.0 - - - - - - -
25/04:44pm 12.9 SSW 15 26 1012.5 - 2.0 - - - - - - -
25/04:30pm 12.9 SSW 14 21 1012.3 - 2.0 - - - - - - -
25/04:00pm 13.2 SSW 15 21 1011.7 - 2.0 - - - - - - -
25/03:30pm 13.6 SW 13 18 1011.3 - 2.0 - - - - - - -
25/03:00pm 13.7 SW 14 20 1010.6 - 2.0 - - - - - - -
25/02:30pm 13.7 SW 13 18 1010.4 - 2.0 - - - - - - -
25/02:00pm 13.9 WSW 10 16 1010.2 - 2.0 - - - - - - -
25/01:30pm 13.7 SW 12 16 1010.0 - 2.0 - - - - - - -
25/01:00pm 14.3 WSW 7 13 1010.0 - 2.0 - - - - - - -
25/12:30pm 14.4 SW 8 12 1010.1 - 2.0 - - - - - - -
25/12:00pm 14.3 SW 6 9 1010.0 - 2.0 - - - - - - -
25/11:30am 13.9 W 6 11 1010.0 - 2.0 - - - - - - -
25/11:00am 13.5 WSW 7 11 1009.8 - 2.0 - - - - - - -
25/10:30am 13.2 W 6 11 1009.6 - 2.0 - - - - - - -
25/10:00am 13.2 WSW 7 16 1009.4 - 2.0 - - - - - - -
25/09:30am 12.8 SSE 9 14 1009.3 - 1.0 - - - - - - -
25/09:00am 12.7 SE 5 10 1009.1 - 19.4 - - - - - - -
25/08:30am 11.9 N 5 7 1009.0 - 15.0 - - - - - - -
25/08:00am 12.2 NNW 6 8 1008.3 - 10.8 - - - - - - -
25/07:30am 12.5 NW 7 10 1007.8 - 9.2 - - - - - - -
25/07:00am 12.4 W 9 13 1007.6 - 6.6 - - - - - - -
25/06:30am 12.6 W 7 12 1007.4 - 5.4 - - - - - - -
25/06:00am 12.1 NNW 6 12 1006.9 - 5.2 - - - - - - -
25/05:30am 12.1 NW 8 12 1006.8 - 4.6 - - - - - - -
25/05:00am 12.1 NW 10 15 1006.5 - 4.6 - - - - - - -
25/04:30am 11.5 NW 10 14 1006.1 - 4.6 - - - - - - -
25/04:00am 11.4 NW 10 13 1006.0 - 4.6 - - - - - - -
25/03:30am 11.3 NNW 10 12 1006.0 - 4.6 - - - - - - -
25/03:00am 11.3 NW 9 13 1005.9 - 4.6 - - - - - - -
25/02:30am 11.5 NW 9 11 1006.0 - 4.6 - - - - - - -
25/02:00am 11.5 NW 10 14 1006.0 - 4.6 - - - - - - -
25/01:30am 11.8 NW 10 13 1005.9 - 4.4 - - - - - - -
25/01:00am 12.1 NNW 8 13 1006.0 - 4.4 - - - - - - -
25/12:30am 12.2 NNW 8 11 1005.9 - 4.4 - - - - - - -
25/12:00am 12.0 NNW 7 9 1005.6 - 4.4 - - - - - - -
 
Date/Time
EST
Temp

°C
Wind Pressure Rain
since 9am
mm
Weather Cloud Vis
km
Sea
Height
m
Swell
Dir
 
Speed
knots
Gust
knots
hPa Trend Height
m
Period
s
Dir
24/11:30pm 11.8 NW 8 10 1005.6 - 4.4 - - - - - - -
24/11:00pm 11.9 NNW 8 10 1005.7 - 4.4 - - - - - - -
24/10:30pm 12.0 NNW 9 13 1005.6 - 4.4 - - - - - - -
24/10:00pm 12.0 NNW 9 13 1005.5 - 4.4 - - - - - - -
24/09:30pm 12.2 NW 9 12 1005.3 - 4.4 - - - - - - -
24/09:00pm 12.4 WNW 7 10 1005.1 - 4.4 - - - - - - -
24/08:30pm 12.4 NW 9 13 1005.4 - 4.4 - - - - - - -

Other Formats:

Comma delimited format used in spreadsheet applications
http://www.bom.gov.au/fwo/IDT60701/IDT60701.94842.axf

JavaScript Object Notation format (JSON) in row-major order
http://www.bom.gov.au/fwo/IDT60701/IDT60701.94842.json